Disney Magic — C6PT7 — position and weather

sailwx.info

Track history (hours):
 
Tides and Currents Weather Stations Pressure Air Temp Water Temp Dewpoint Dewpoint Depression Visibility Wind Speed Wind Dir Waves Ship Positions

Disney Magic

Last reported at 2017-Jun-25 08:30 UTC. Time now 2017-Jun-25 08:39 UTC.
Position N 55°53' E 017°04'.

Type: Passenger vessel. MMSI: 308516000.

Date/timePositionNaut miles runAvg speedWind from/ knotsBaromVisibWave heightAir tempDewpointWater temp
2017-Jun-25 08:30N 55°53' E 017°04'1120.4
2017-Jun-25 07:57N 55°56' E 017°23'920.8
2017-Jun-25 07:30N 55°59' E 017°39'16620.6
2017-Jun-24 23:27N 58°16' E 020°32'921.1
2017-Jun-24 23:00N 58°23' E 020°42'1121.1
2017-Jun-24 22:31N 58°32' E 020°53'1020.8
2017-Jun-24 22:00N 58°41' E 021°03'1020.9
2017-Jun-24 21:31N 58°50' E 021°13'1121.1
2017-Jun-24 21:01N 58°59' E 021°24'1121.1
2017-Jun-24 20:31N 59°08' E 021°36'1121.0
2017-Jun-24 20:00N 59°15' E 021°52'1020.9
2017-Jun-24 19:31N 59°21' E 022°08'1121.0
2017-Jun-24 19:00N 59°27' E 022°25'1121.5
2017-Jun-24 18:31N 59°31' E 022°44'1121.7
2017-Jun-24 18:01N 59°35' E 023°04'1122.0
2017-Jun-24 17:31N 59°33' E 023°26'1122.2
2017-Jun-24 17:01N 59°31' E 023°48'1122.3
2017-Jun-24 16:31N 59°30' E 024°09'1121.1
2017-Jun-24 16:00N 59°30' E 024°30'611.6
2017-Jun-24 15:30N 59°32' E 024°41'510.4
2017-Jun-24 15:01N 59°27' E 024°46'0 0.4
2017-Jun-24 14:00N 59°27' E 024°46'0 0.0
2017-Jun-24 13:30N 59°27' E 024°46'0 0.0
2017-Jun-24 13:01N 59°27' E 024°46'0 0.0
2017-Jun-24 12:31N 59°27' E 024°46'0 0.0
2017-Jun-24 12:00N 59°27' E 024°46'0 0.0
2017-Jun-24 11:31N 59°27' E 024°46'0 0.0
2017-Jun-24 11:00N 59°27' E 024°46'0 0.0
2017-Jun-24 10:31N 59°27' E 024°46'0 0.0
2017-Jun-24 10:01N 59°27' E 024°46'0 0.0
2017-Jun-24 09:31N 59°27' E 024°46'0 0.0
2017-Jun-24 09:01N 59°27' E 024°46'0 1.0
2017-Jun-24 08:31N 59°27' E 024°46'713.1
2017-Jun-24 08:01N 59°34' E 024°42'714.9
2017-Jun-24 07:30N 59°41' E 024°38'713.3
2017-Jun-24 07:01N 59°47' E 024°40'816.6
2017-Jun-24 06:31N 59°51' E 024°55'815.7
2017-Jun-24 06:01N 59°51' E 025°11'918.0
2017-Jun-24 05:31N 59°53' E 025°28'1019.4
2017-Jun-24 05:01N 59°55' E 025°47'1121.7
2017-Jun-24 04:31N 59°58' E 026°08'1121.7
2017-Jun-24 04:01N 60°01' E 026°29'1121.6
2017-Jun-24 03:31N 60°00' E 026°50'1020.6
2017-Jun-24 03:00N 60°02' E 027°11'1121.8
2017-Jun-24 02:31N 60°08' E 027°29'1121.4
2017-Jun-24 02:01N 60°12' E 027°49'1121.7
2017-Jun-24 01:31N 60°09' E 028°10'1121.2
2017-Jun-24 01:01N 60°04' E 028°29'1121.3
2017-Jun-24 00:31N 60°03' E 028°50'1121.2
2017-Jun-24 00:00N 60°02' E 029°11'816.3
2017-Jun-23 23:30N 60°02' E 029°27'510.8
2017-Jun-23 23:00N 60°00' E 029°38'5 9.5
2017-Jun-23 22:30N 59°58' E 029°47'510.3
2017-Jun-23 22:00N 59°56' E 029°56'5 9.3
2017-Jun-23 21:30N 59°56' E 030°05'3 5.8
2017-Jun-23 20:59N 59°57' E 030°11'0 0.2
2017-Jun-23 20:29N 59°57' E 030°11'0 0.0
2017-Jun-23 19:59N 59°57' E 030°11'0 0.0
2017-Jun-23 19:29N 59°57' E 030°11'0 0.0
2017-Jun-23 18:59N 59°57' E 030°11'0 0.0
2017-Jun-23 18:29N 59°57' E 030°11'0 0.0
2017-Jun-23 17:59N 59°57' E 030°11'0 0.0
2017-Jun-23 17:29N 59°57' E 030°11'0 0.0
2017-Jun-23 16:59N 59°57' E 030°11'0 0.0
2017-Jun-23 16:29N 59°57' E 030°11'0 0.0
2017-Jun-23 15:59N 59°57' E 030°11'0 0.0
2017-Jun-23 15:26N 59°57' E 030°11'0 0.0
2017-Jun-23 14:59N 59°57' E 030°11'0 0.0
2017-Jun-23 13:59N 59°57' E 030°11'0 0.0
2017-Jun-23 13:29N 59°57' E 030°11'0 0.0
2017-Jun-23 12:59N 59°57' E 030°11'0 0.0
2017-Jun-23 12:29N 59°57' E 030°11'0 0.0
2017-Jun-23 11:59N 59°57' E 030°11'0 0.0
2017-Jun-23 11:29N 59°57' E 030°11'0 0.0
2017-Jun-23 10:59N 59°57' E 030°11'0 0.0
2017-Jun-23 10:29N 59°57' E 030°11'0 0.0
2017-Jun-23 09:59N 59°57' E 030°11'0 0.0
2017-Jun-23 08:29N 59°57' E 030°11'6 1.0
2017-Jun-23 02:29N 59°55' E 030°00'611.2
2017-Jun-23 01:57N 59°57' E 029°49'6 9.6
2017-Jun-23 01:22N 59°60' E 029°39'513.8
2017-Jun-23 00:59N 60°01' E 029°29'4 7.8
2017-Jun-23 00:27N 60°01' E 029°21'817.0
2017-Jun-23 00:00N 60°02' E 029°06'917.4
2017-Jun-22 23:30N 60°02' E 028°48'917.2
2017-Jun-22 23:00N 60°02' E 028°31'816.5
2017-Jun-22 22:30N 60°07' E 028°17'917.6
2017-Jun-22 22:00N 60°09' E 027°60'917.2
2017-Jun-22 21:30N 60°10' E 027°43'917.9
2017-Jun-22 21:00N 60°05' E 027°28'918.1
2017-Jun-22 20:30N 60°01' E 027°12'917.1
2017-Jun-22 20:01N 59°58' E 026°56'917.8
2017-Jun-22 19:30N 59°59' E 026°38'918.1
2017-Jun-22 19:00N 59°57' E 026°20'918.2
2017-Jun-22 18:30N 59°55' E 026°03'918.3
2017-Jun-22 18:01N 59°52' E 025°46'918.4
2017-Jun-22 17:31N 59°50' E 025°28'918.4
2017-Jun-22 17:01N 59°48' E 025°10'815.2
2017-Jun-22 16:31N 59°52' E 024°57'816.9
2017-Jun-22 16:00N 60°01' E 024°57'612.3
2017-Jun-22 15:30N 60°07' E 024°54'2 4.7
2017-Jun-22 15:00N 60°09' E 024°55'0 0.1
2017-Jun-22 13:58N 60°09' E 024°55'0 0.0
2017-Jun-22 13:28N 60°09' E 024°55'0 0.0
2017-Jun-22 12:58N 60°09' E 024°55'0 0.0
2017-Jun-22 12:30N 60°09' E 024°55'0 0.0
2017-Jun-22 12:00N 60°09' E 024°55'0 0.0
2017-Jun-22 11:30N 60°09' E 024°55'0 0.0
2017-Jun-22 11:00N 60°09' E 024°55'0 0.0
2017-Jun-22 10:30N 60°09' E 024°55'0 0.0
2017-Jun-22 10:00N 60°09' E 024°55'0 0.0
2017-Jun-22 09:30N 60°09' E 024°55'0 0.0
2017-Jun-22 09:00N 60°09' E 024°55'0 0.0
2017-Jun-22 08:30N 60°09' E 024°55'0 0.0
2017-Jun-22 08:00N 60°09' E 024°55'0 0.0
2017-Jun-22 07:30N 60°09' E 024°55'0 0.0
2017-Jun-22 07:00N 60°09' E 024°55'1 1.7
2017-Jun-22 06:30N 60°08' E 024°54'612.7
2017-Jun-22 06:00N 60°02' E 024°55'511.0
2017-Jun-22 05:30N 59°57' E 024°56'713.7
2017-Jun-22 05:01N 59°50' E 024°58'714.6
2017-Jun-22 04:30N 59°47' E 024°45'816.9
2017-Jun-22 04:00N 59°44' E 024°28'917.2
2017-Jun-22 03:30N 59°41' E 024°12'917.9
2017-Jun-22 03:01N 59°39' E 023°55'918.7
2017-Jun-22 02:30N 59°36' E 023°38'918.2
2017-Jun-22 02:01N 59°33' E 023°21'1019.1
2017-Jun-22 01:30N 59°30' E 023°03'1122.5
2017-Jun-22 01:01N 59°26' E 022°42'1122.8
2017-Jun-22 00:31N 59°23' E 022°21'1122.5
2017-Jun-22 00:00N 59°23' E 021°59'1122.1
2017-Jun-21 23:30N 59°24' E 021°37'1122.4
2017-Jun-21 23:01N 59°25' E 021°15'1122.3
2017-Jun-21 22:30N 59°26' E 020°53'1122.1
2017-Jun-21 22:00N 59°27' E 020°32'1121.9
2017-Jun-21 21:30N 59°27' E 020°10'1020.0
2017-Jun-21 21:01N 59°36' E 020°00'1121.2
2017-Jun-21 20:30N 59°43' E 019°46'1019.9
2017-Jun-21 20:00N 59°47' E 019°28'815.3
2017-Jun-21 19:31N 59°44' E 019°14'816.9
2017-Jun-21 19:01N 59°41' E 018°59'4 8.6
2017-Jun-21 18:30N 59°38' E 018°52'611.9
2017-Jun-21 18:00N 59°35' E 018°42'510.3
2017-Jun-21 17:30N 59°32' E 018°34'5 9.7
2017-Jun-21 17:00N 59°29' E 018°27'5 9.1
2017-Jun-21 16:30N 59°24' E 018°26'3 5.6
2017-Jun-21 16:00N 59°22' E 018°23'510.4
2017-Jun-21 15:30N 59°20' E 018°13'3 5.1
2017-Jun-21 14:57N 59°21' E 018°08'0 0.0
2017-Jun-21 13:57N 59°21' E 018°08'0 0.0
2017-Jun-21 13:27N 59°21' E 018°08'0 0.0
2017-Jun-21 12:57N 59°21' E 018°08'0 0.0
2017-Jun-21 12:30N 59°21' E 018°08'0 0.0
2017-Jun-21 11:57N 59°21' E 018°08'0 0.0
2017-Jun-21 11:27N 59°21' E 018°08'0 0.0
2017-Jun-21 10:57N 59°21' E 018°08'0 0.0
2017-Jun-21 10:30N 59°21' E 018°08'0 0.0
2017-Jun-21 09:57N 59°21' E 018°08'0 0.0
2017-Jun-21 09:27N 59°21' E 018°08'0 0.0
2017-Jun-21 09:00N 59°21' E 018°08'0 0.0
2017-Jun-21 08:30N 59°21' E 018°08'0 0.0
2017-Jun-21 08:00N 59°21' E 018°08'0 0.0
2017-Jun-21 07:30N 59°21' E 018°08'0 0.0
2017-Jun-21 07:00N 59°21' E 018°08'0 0.0
2017-Jun-21 06:30N 59°21' E 018°08'0 0.0
2017-Jun-21 06:00N 59°21' E 018°08'1 2.9
2017-Jun-21 05:30N 59°20' E 018°10'5 9.8
2017-Jun-21 05:00N 59°23' E 018°18'4 8.7
2017-Jun-21 04:30N 59°22' E 018°27'5 9.3
2017-Jun-21 04:00N 59°26' E 018°23'510.9
2017-Jun-21 03:31N 59°31' E 018°29'5 9.8
2017-Jun-21 03:00N 59°33' E 018°37'611.3
2017-Jun-21 02:31N 59°36' E 018°47'510.5
2017-Jun-21 02:01N 59°39' E 018°55'713.1
2017-Jun-21 01:30N 59°43' E 019°06'917.4
2017-Jun-21 01:00N 59°46' E 019°22'4 8.9
2017-Jun-21 00:30N 59°48' E 019°30'5 9.2
2017-Jun-21 00:00N 59°48' E 019°39'5 9.5
2017-Jun-20 23:30N 59°46' E 019°47'5 9.9
2017-Jun-20 23:00N 59°42' E 019°54'510.1
2017-Jun-20 22:30N 59°38' E 020°01'713.2
2017-Jun-20 22:00N 59°34' E 020°10'816.2
2017-Jun-20 21:30N 59°26' E 020°06'918.2
2017-Jun-20 21:00N 59°19' E 019°55'918.3
2017-Jun-20 20:30N 59°12' E 019°43'918.6
2017-Jun-20 20:00N 59°04' E 019°33'918.7
2017-Jun-20 19:30N 58°56' E 019°23'17317.4
2017-Jun-20 09:33N 56°21' E 017°01'121.3
2017-Jun-20 09:30N 56°20' E 017°00'1121.3
2017-Jun-20 09:00N 56°10' E 016°53'1020.7
2017-Jun-20 08:30N 56°02' E 016°41'1121.8
2017-Jun-20 08:00N 55°58' E 016°24'1121.9
2017-Jun-20 07:30N 55°52' E 016°07'1122.0
2017-Jun-20 07:00N 55°46' E 015°50'1122.0
2017-Jun-20 06:30N 55°41' E 015°33'918.5
2017-Jun-20 06:00N 55°37' E 015°19'918.8
2017-Jun-20 05:30N 55°32' E 015°04'1122.2
2017-Jun-20 05:00N 55°27' E 014°47'1122.1
2017-Jun-20 04:30N 55°19' E 014°34'1121.8
2017-Jun-20 04:00N 55°10' E 014°21'917.0
2017-Jun-20 03:30N 55°03' E 014°12'815.5
2017-Jun-20 03:00N 54°59' E 014°01'815.9
2017-Jun-20 02:30N 54°57' E 013°48'816.2
2017-Jun-20 02:00N 54°54' E 013°34'1020.4
2017-Jun-20 01:30N 54°51' E 013°17'1020.9
2017-Jun-20 01:00N 54°48' E 012°60'1020.3
2017-Jun-20 00:30N 54°45' E 012°43'1019.9
2017-Jun-19 23:59N 54°39' E 012°28'1519.6
2017-Jun-19 23:13N 54°27' E 012°13'419.8
2017-Jun-19 22:59N 54°23' E 012°09'817.3
2017-Jun-19 22:30N 54°15' E 012°04'5 2.1
2017-Jun-19 20:05N 54°10' E 012°06'0 0.0
2017-Jun-19 16:32N 54°10' E 012°06'0 0.0
2017-Jun-19 16:29N 54°10' E 012°06'0 0.0
2017-Jun-19 14:29N 54°10' E 012°06'0 0.0
2017-Jun-19 11:29N 54°10' E 012°06'0 0.0
2017-Jun-19 08:14N 54°10' E 012°06'0 0.0
2017-Jun-19 07:59N 54°10' E 012°06'0 0.0
2017-Jun-19 07:17N 54°10' E 012°06'0 0.0
2017-Jun-19 06:59N 54°10' E 012°06'0 0.0
2017-Jun-19 05:08N 54°10' E 012°06'0 0.0
2017-Jun-19 04:18N 54°10' E 012°06'0 0.9
2017-Jun-19 04:00N 54°11' E 012°06'4 8.6
2017-Jun-19 03:30N 54°15' E 012°03'612.5
2017-Jun-19 03:00N 54°19' E 011°56'917.9
2017-Jun-19 02:30N 54°24' E 011°43'918.1
2017-Jun-19 02:00N 54°29' E 011°30'918.3
2017-Jun-19 01:30N 54°33' E 011°16'1020.9
2017-Jun-19 01:00N 54°38' E 011°00'816.8
2017-Jun-19 00:30N 54°45' E 010°51'713.7
2017-Jun-19 00:00N 54°52' E 010°52'1019.9
2017-Jun-18 23:30N 55°00' E 011°01'1020.3
2017-Jun-18 23:00N 55°10' E 011°03'816.1
2017-Jun-18 22:30N 55°18' E 011°02'815.3
2017-Jun-18 21:59N 55°26' E 010°58'4715.7
2017-Jun-18 19:00N 56°08' E 011°32'1020.2
2017-Jun-18 18:30N 56°09' E 011°50'1020.4
2017-Jun-18 18:00N 56°12' E 012°08'1019.2
2017-Jun-18 17:30N 56°10' E 012°25'918.8
2017-Jun-18 17:00N 56°04' E 012°38'714.7
2017-Jun-18 16:30N 55°57' E 012°39'815.6
2017-Jun-18 16:00N 55°49' E 012°43'713.1
2017-Jun-18 15:30N 55°43' E 012°39'1 1.4
2017-Jun-18 14:58N 55°43' E 012°37'0 0.0
2017-Jun-18 13:58N 55°43' E 012°37'0 0.0
2017-Jun-18 13:28N 55°43' E 012°37'0 0.0
2017-Jun-18 12:58N 55°43' E 012°37'0 0.0
2017-Jun-18 12:28N 55°43' E 012°37'0 0.0
2017-Jun-18 11:58N 55°43' E 012°37'0 0.0
2017-Jun-18 11:28N 55°43' E 012°37'0 0.0
2017-Jun-18 10:58N 55°43' E 012°37'0 0.0
2017-Jun-18 10:28N 55°43' E 012°37'0 0.0
2017-Jun-18 09:58N 55°43' E 012°37'0 0.0
2017-Jun-18 09:28N 55°43' E 012°37'0 0.0
2017-Jun-18 08:58N 55°43' E 012°37'0 0.0
2017-Jun-18 08:28N 55°43' E 012°37'0 0.0
2017-Jun-18 07:58N 55°43' E 012°37'0 0.0
2017-Jun-18 07:28N 55°43' E 012°37'0 0.0
2017-Jun-18 06:58N 55°43' E 012°37'0 0.0
2017-Jun-18 06:28N 55°43' E 012°37'0 0.0
2017-Jun-18 05:58N 55°43' E 012°37'0 0.0
2017-Jun-18 05:28N 55°43' E 012°37'0 0.0
2017-Jun-18 04:58N 55°43' E 012°37'1 3.1
2017-Jun-18 04:30N 55°44' E 012°39'815.0
2017-Jun-18 04:01N 55°51' E 012°41'918.5
2017-Jun-18 03:31N 56°00' E 012°40'1019.1
2017-Jun-18 03:01N 56°08' E 012°29'1021.0
2017-Jun-18 02:31N 56°12' E 012°11'1121.0
2017-Jun-18 02:00N 56°10' E 011°53'5815.2
2017-Jun-17 22:10N 55°19' E 011°03'319.2
2017-Jun-17 22:00N 55°16' E 011°05'919.2
2017-Jun-17 21:31N 55°06' E 011°03'1019.3
2017-Jun-17 21:00N 54°57' E 010°56'918.5
2017-Jun-17 20:31N 54°49' E 010°51'917.0
2017-Jun-17 20:01N 54°41' E 010°56'1019.8
2017-Jun-17 19:31N 54°36' E 011°11'1020.2
2017-Jun-17 19:01N 54°32' E 011°27'1120.1
2017-Jun-17 18:28N 54°27' E 011°44'919.5
2017-Jun-17 18:00N 54°27' E 011°60'816.5
2017-Jun-17 17:30N 54°30' E 012°13'5918.3
2017-Jun-17 14:17N 54°59' E 013°41'1721.2
2017-Jun-17 13:30N 55°07' E 014°07'1121.4
2017-Jun-17 13:00N 55°15' E 014°18'1121.7
2017-Jun-17 12:30N 55°24' E 014°29'1121.2
2017-Jun-17 12:00N 55°30' E 014°45'1121.9
2017-Jun-17 11:30N 55°34' E 015°02'1121.8
2017-Jun-17 11:00N 55°39' E 015°20'1121.7
2017-Jun-17 10:30N 55°41' E 015°39'1121.8
2017-Jun-17 10:00N 55°44' E 015°57'1020.7
2017-Jun-17 09:30N 55°48' E 016°14'1020.4
2017-Jun-17 09:00N 55°49' E 016°32'1121.2
2017-Jun-17 08:30N 55°52' E 016°51'1020.9
2017-Jun-17 08:00N 55°54' E 017°09'4921.0
2017-Jun-17 05:41N 56°16' E 018°28'522.4
2017-Jun-17 05:27N 56°18' E 018°36'1022.0
2017-Jun-17 05:00N 56°25' E 018°47'12622.0
2017-Jun-16 23:19N 58°18' E 020°29'722.2
2017-Jun-16 23:00N 58°24' E 020°37'1121.9
2017-Jun-16 22:30N 58°32' E 020°50'1122.2
2017-Jun-16 22:00N 58°41' E 021°02'1122.3
2017-Jun-16 21:30N 58°51' E 021°13'1122.3
2017-Jun-16 21:00N 59°00' E 021°25'1122.2
2017-Jun-16 20:30N 59°09' E 021°38'1122.3
2017-Jun-16 20:00N 59°16' E 021°55'1122.1
2017-Jun-16 19:30N 59°23' E 022°12'1122.2
2017-Jun-16 19:00N 59°29' E 022°30'1122.1
2017-Jun-16 18:30N 59°31' E 022°52'1122.4
2017-Jun-16 18:00N 59°32' E 023°14'1122.0
2017-Jun-16 17:30N 59°32' E 023°35'1121.9
2017-Jun-16 17:00N 59°31' E 023°57'1122.1
2017-Jun-16 16:31N 59°30' E 024°18'816.7
2017-Jun-16 16:00N 59°31' E 024°35'5 9.9
2017-Jun-16 15:31N 59°31' E 024°45'4 8.5
2017-Jun-16 15:00N 59°27' E 024°46'0 0.3
2017-Jun-16 14:30N 59°27' E 024°46'0 0.0
2017-Jun-16 13:30N 59°27' E 024°46'0 0.0
2017-Jun-16 13:00N 59°27' E 024°46'0 0.0
2017-Jun-16 12:30N 59°27' E 024°46'0 0.0
2017-Jun-16 12:00N 59°27' E 024°46'0 0.0
2017-Jun-16 11:30N 59°27' E 024°46'0 0.0
2017-Jun-16 11:00N 59°27' E 024°46'0 0.0
2017-Jun-16 10:30N 59°27' E 024°46'0 0.0
2017-Jun-16 10:00N 59°27' E 024°46'0 0.0
2017-Jun-16 09:30N 59°27' E 024°46'0 0.0
2017-Jun-16 08:57N 59°27' E 024°46'0 0.5
2017-Jun-16 08:30N 59°27' E 024°46'612.6
2017-Jun-16 08:00N 59°33' E 024°42'713.2
2017-Jun-16 07:31N 59°40' E 024°39'714.8
2017-Jun-16 07:00N 59°47' E 024°40'714.6
2017-Jun-16 06:31N 59°50' E 024°53'817.0
2017-Jun-16 06:00N 59°51' E 025°10'917.7
2017-Jun-16 05:30N 59°53' E 025°27'918.3
2017-Jun-16 05:00N 59°55' E 025°45'1019.4
2017-Jun-16 04:31N 59°57' E 026°04'1121.9
2017-Jun-16 04:01N 60°00' E 026°25'1121.1
2017-Jun-16 03:31N 60°01' E 026°46'1120.9
2017-Jun-16 03:00N 60°00' E 027°07'1121.8
2017-Jun-16 02:30N 60°06' E 027°25'1121.6
2017-Jun-16 02:01N 60°12' E 027°44'1121.5
2017-Jun-16 01:30N 60°10' E 028°05'1121.2
2017-Jun-16 01:00N 60°05' E 028°24'1020.9
2017-Jun-16 00:30N 60°03' E 028°44'1121.1
2017-Jun-16 00:00N 60°02' E 029°06'1019.8
2017-Jun-15 23:31N 60°02' E 029°25'5 9.8
2017-Jun-15 23:01N 60°01' E 029°35'510.7
2017-Jun-15 22:30N 59°59' E 029°45'5 9.4
2017-Jun-15 22:01N 59°57' E 029°53'5 9.6
2017-Jun-15 21:30N 59°56' E 030°03'4 8.5
2017-Jun-15 21:00N 59°57' E 030°11'0 0.4
2017-Jun-15 20:28N 59°57' E 030°11'0 0.0
2017-Jun-15 19:58N 59°57' E 030°11'0 0.0
2017-Jun-15 19:28N 59°57' E 030°11'0 0.0
2017-Jun-15 18:58N 59°57' E 030°11'0 0.0
2017-Jun-15 18:28N 59°57' E 030°11'0 0.0
2017-Jun-15 17:58N 59°57' E 030°11'0 0.0
2017-Jun-15 17:28N 59°57' E 030°11'0 0.0
2017-Jun-15 16:58N 59°57' E 030°11'0 0.0
2017-Jun-15 16:28N 59°57' E 030°11'0 0.0
2017-Jun-15 15:58N 59°57' E 030°11'0 0.0
2017-Jun-15 15:28N 59°57' E 030°11'0 0.0
2017-Jun-15 14:58N 59°57' E 030°11'0 0.0
2017-Jun-15 13:58N 59°57' E 030°11'0 0.0
2017-Jun-15 13:28N 59°57' E 030°11'0 0.0
2017-Jun-15 12:58N 59°57' E 030°11'0 0.0
2017-Jun-15 12:28N 59°57' E 030°11'0 0.0
2017-Jun-15 11:58N 59°57' E 030°11'0 0.0
2017-Jun-15 11:28N 59°57' E 030°11'0 0.0
2017-Jun-15 10:58N 59°57' E 030°11'0 0.0
2017-Jun-15 10:28N 59°57' E 030°11'0 0.0
2017-Jun-15 09:58N 59°57' E 030°11'0 0.0
2017-Jun-15 09:28N 59°57' E 030°11'0 0.0
2017-Jun-15 08:58N 59°57' E 030°11'  
Track history (hours):
 
Tides and Currents Weather Stations Pressure Air Temp Water Temp Dewpoint Dewpoint Depression Visibility Wind Speed Wind Dir Waves Ship Positions

Disney Magic

Last reported at 2017-Jun-25 08:30 UTC. Time now 2017-Jun-25 08:39 UTC.
Position N 55°53' E 017°04'.

Type: Passenger vessel. MMSI: 308516000.

Date/timePositionNaut miles runAvg speedWind from/ knotsBaromVisibWave heightAir tempDewpointWater temp
2017-Jun-25 08:30N 55°53' E 017°04'1120.4
2017-Jun-25 07:57N 55°56' E 017°23'920.8
2017-Jun-25 07:30N 55°59' E 017°39'16620.6
2017-Jun-24 23:27N 58°16' E 020°32'921.1
2017-Jun-24 23:00N 58°23' E 020°42'1121.1
2017-Jun-24 22:31N 58°32' E 020°53'1020.8
2017-Jun-24 22:00N 58°41' E 021°03'1020.9
2017-Jun-24 21:31N 58°50' E 021°13'1121.1
2017-Jun-24 21:01N 58°59' E 021°24'1121.1
2017-Jun-24 20:31N 59°08' E 021°36'1121.0
2017-Jun-24 20:00N 59°15' E 021°52'1020.9
2017-Jun-24 19:31N 59°21' E 022°08'1121.0
2017-Jun-24 19:00N 59°27' E 022°25'1121.5
2017-Jun-24 18:31N 59°31' E 022°44'1121.7
2017-Jun-24 18:01N 59°35' E 023°04'1122.0
2017-Jun-24 17:31N 59°33' E 023°26'1122.2
2017-Jun-24 17:01N 59°31' E 023°48'1122.3
2017-Jun-24 16:31N 59°30' E 024°09'1121.1
2017-Jun-24 16:00N 59°30' E 024°30'611.6
2017-Jun-24 15:30N 59°32' E 024°41'510.4
2017-Jun-24 15:01N 59°27' E 024°46'0 0.4
2017-Jun-24 14:00N 59°27' E 024°46'0 0.0
2017-Jun-24 13:30N 59°27' E 024°46'0 0.0
2017-Jun-24 13:01N 59°27' E 024°46'0 0.0
2017-Jun-24 12:31N 59°27' E 024°46'0 0.0
2017-Jun-24 12:00N 59°27' E 024°46'0 0.0
2017-Jun-24 11:31N 59°27' E 024°46'0 0.0
2017-Jun-24 11:00N 59°27' E 024°46'0 0.0
2017-Jun-24 10:31N 59°27' E 024°46'0 0.0
2017-Jun-24 10:01N 59°27' E 024°46'0 0.0
2017-Jun-24 09:31N 59°27' E 024°46'0 0.0
2017-Jun-24 09:01N 59°27' E 024°46'0 1.0
2017-Jun-24 08:31N 59°27' E 024°46'713.1
2017-Jun-24 08:01N 59°34' E 024°42'714.9
2017-Jun-24 07:30N 59°41' E 024°38'713.3
2017-Jun-24 07:01N 59°47' E 024°40'816.6
2017-Jun-24 06:31N 59°51' E 024°55'815.7
2017-Jun-24 06:01N 59°51' E 025°11'918.0
2017-Jun-24 05:31N 59°53' E 025°28'1019.4
2017-Jun-24 05:01N 59°55' E 025°47'1121.7
2017-Jun-24 04:31N 59°58' E 026°08'1121.7
2017-Jun-24 04:01N 60°01' E 026°29'1121.6
2017-Jun-24 03:31N 60°00' E 026°50'1020.6
2017-Jun-24 03:00N 60°02' E 027°11'1121.8
2017-Jun-24 02:31N 60°08' E 027°29'1121.4
2017-Jun-24 02:01N 60°12' E 027°49'1121.7
2017-Jun-24 01:31N 60°09' E 028°10'1121.2
2017-Jun-24 01:01N 60°04' E 028°29'1121.3
2017-Jun-24 00:31N 60°03' E 028°50'1121.2
2017-Jun-24 00:00N 60°02' E 029°11'816.3
2017-Jun-23 23:30N 60°02' E 029°27'510.8
2017-Jun-23 23:00N 60°00' E 029°38'5 9.5
2017-Jun-23 22:30N 59°58' E 029°47'510.3
2017-Jun-23 22:00N 59°56' E 029°56'5 9.3
2017-Jun-23 21:30N 59°56' E 030°05'3 5.8
2017-Jun-23 20:59N 59°57' E 030°11'0 0.2
2017-Jun-23 20:29N 59°57' E 030°11'0 0.0
2017-Jun-23 19:59N 59°57' E 030°11'0 0.0
2017-Jun-23 19:29N 59°57' E 030°11'0 0.0
2017-Jun-23 18:59N 59°57' E 030°11'0 0.0
2017-Jun-23 18:29N 59°57' E 030°11'0 0.0
2017-Jun-23 17:59N 59°57' E 030°11'0 0.0
2017-Jun-23 17:29N 59°57' E 030°11'0 0.0
2017-Jun-23 16:59N 59°57' E 030°11'0 0.0
2017-Jun-23 16:29N 59°57' E 030°11'0 0.0
2017-Jun-23 15:59N 59°57' E 030°11'0 0.0
2017-Jun-23 15:26N 59°57' E 030°11'0 0.0
2017-Jun-23 14:59N 59°57' E 030°11'0 0.0
2017-Jun-23 13:59N 59°57' E 030°11'0 0.0
2017-Jun-23 13:29N 59°57' E 030°11'0 0.0
2017-Jun-23 12:59N 59°57' E 030°11'0 0.0
2017-Jun-23 12:29N 59°57' E 030°11'0 0.0
2017-Jun-23 11:59N 59°57' E 030°11'0 0.0
2017-Jun-23 11:29N 59°57' E 030°11'0 0.0
2017-Jun-23 10:59N 59°57' E 030°11'0 0.0
2017-Jun-23 10:29N 59°57' E 030°11'0 0.0
2017-Jun-23 09:59N 59°57' E 030°11'0 0.0
2017-Jun-23 08:29N 59°57' E 030°11'6 1.0
2017-Jun-23 02:29N 59°55' E 030°00'611.2
2017-Jun-23 01:57N 59°57' E 029°49'6 9.6
2017-Jun-23 01:22N 59°60' E 029°39'513.8
2017-Jun-23 00:59N 60°01' E 029°29'4 7.8
2017-Jun-23 00:27N 60°01' E 029°21'817.0
2017-Jun-23 00:00N 60°02' E 029°06'917.4
2017-Jun-22 23:30N 60°02' E 028°48'917.2
2017-Jun-22 23:00N 60°02' E 028°31'816.5
2017-Jun-22 22:30N 60°07' E 028°17'917.6
2017-Jun-22 22:00N 60°09' E 027°60'917.2
2017-Jun-22 21:30N 60°10' E 027°43'917.9
2017-Jun-22 21:00N 60°05' E 027°28'918.1
2017-Jun-22 20:30N 60°01' E 027°12'917.1
2017-Jun-22 20:01N 59°58' E 026°56'917.8
2017-Jun-22 19:30N 59°59' E 026°38'918.1
2017-Jun-22 19:00N 59°57' E 026°20'918.2
2017-Jun-22 18:30N 59°55' E 026°03'918.3
2017-Jun-22 18:01N 59°52' E 025°46'918.4
2017-Jun-22 17:31N 59°50' E 025°28'918.4
2017-Jun-22 17:01N 59°48' E 025°10'815.2
2017-Jun-22 16:31N 59°52' E 024°57'816.9
2017-Jun-22 16:00N 60°01' E 024°57'612.3
2017-Jun-22 15:30N 60°07' E 024°54'2 4.7
2017-Jun-22 15:00N 60°09' E 024°55'0 0.1
2017-Jun-22 13:58N 60°09' E 024°55'0 0.0
2017-Jun-22 13:28N 60°09' E 024°55'0 0.0
2017-Jun-22 12:58N 60°09' E 024°55'0 0.0
2017-Jun-22 12:30N 60°09' E 024°55'0 0.0
2017-Jun-22 12:00N 60°09' E 024°55'0 0.0
2017-Jun-22 11:30N 60°09' E 024°55'0 0.0
2017-Jun-22 11:00N 60°09' E 024°55'0 0.0
2017-Jun-22 10:30N 60°09' E 024°55'0 0.0
2017-Jun-22 10:00N 60°09' E 024°55'0 0.0
2017-Jun-22 09:30N 60°09' E 024°55'0 0.0
2017-Jun-22 09:00N 60°09' E 024°55'0 0.0
2017-Jun-22 08:30N 60°09' E 024°55'0 0.0
2017-Jun-22 08:00N 60°09' E 024°55'0 0.0
2017-Jun-22 07:30N 60°09' E 024°55'0 0.0
2017-Jun-22 07:00N 60°09' E 024°55'1 1.7
2017-Jun-22 06:30N 60°08' E 024°54'612.7
2017-Jun-22 06:00N 60°02' E 024°55'511.0
2017-Jun-22 05:30N 59°57' E 024°56'713.7
2017-Jun-22 05:01N 59°50' E 024°58'714.6
2017-Jun-22 04:30N 59°47' E 024°45'816.9
2017-Jun-22 04:00N 59°44' E 024°28'917.2
2017-Jun-22 03:30N 59°41' E 024°12'917.9
2017-Jun-22 03:01N 59°39' E 023°55'918.7
2017-Jun-22 02:30N 59°36' E 023°38'918.2
2017-Jun-22 02:01N 59°33' E 023°21'1019.1
2017-Jun-22 01:30N 59°30' E 023°03'1122.5
2017-Jun-22 01:01N 59°26' E 022°42'1122.8
2017-Jun-22 00:31N 59°23' E 022°21'1122.5
2017-Jun-22 00:00N 59°23' E 021°59'1122.1
2017-Jun-21 23:30N 59°24' E 021°37'1122.4
2017-Jun-21 23:01N 59°25' E 021°15'1122.3
2017-Jun-21 22:30N 59°26' E 020°53'1122.1
2017-Jun-21 22:00N 59°27' E 020°32'1121.9
2017-Jun-21 21:30N 59°27' E 020°10'1020.0
2017-Jun-21 21:01N 59°36' E 020°00'1121.2
2017-Jun-21 20:30N 59°43' E 019°46'1019.9
2017-Jun-21 20:00N 59°47' E 019°28'815.3
2017-Jun-21 19:31N 59°44' E 019°14'816.9
2017-Jun-21 19:01N 59°41' E 018°59'4 8.6
2017-Jun-21 18:30N 59°38' E 018°52'611.9
2017-Jun-21 18:00N 59°35' E 018°42'510.3
2017-Jun-21 17:30N 59°32' E 018°34'5 9.7
2017-Jun-21 17:00N 59°29' E 018°27'5 9.1
2017-Jun-21 16:30N 59°24' E 018°26'3 5.6
2017-Jun-21 16:00N 59°22' E 018°23'510.4
2017-Jun-21 15:30N 59°20' E 018°13'3 5.1
2017-Jun-21 14:57N 59°21' E 018°08'0 0.0
2017-Jun-21 13:57N 59°21' E 018°08'0 0.0
2017-Jun-21 13:27N 59°21' E 018°08'0 0.0
2017-Jun-21 12:57N 59°21' E 018°08'0 0.0
2017-Jun-21 12:30N 59°21' E 018°08'0 0.0
2017-Jun-21 11:57N 59°21' E 018°08'0 0.0
2017-Jun-21 11:27N 59°21' E 018°08'0 0.0
2017-Jun-21 10:57N 59°21' E 018°08'0 0.0
2017-Jun-21 10:30N 59°21' E 018°08'0 0.0
2017-Jun-21 09:57N 59°21' E 018°08'0 0.0
2017-Jun-21 09:27N 59°21' E 018°08'0 0.0
2017-Jun-21 09:00N 59°21' E 018°08'0 0.0
2017-Jun-21 08:30N 59°21' E 018°08'0 0.0
2017-Jun-21 08:00N 59°21' E 018°08'0 0.0
2017-Jun-21 07:30N 59°21' E 018°08'0 0.0
2017-Jun-21 07:00N 59°21' E 018°08'0 0.0
2017-Jun-21 06:30N 59°21' E 018°08'0 0.0
2017-Jun-21 06:00N 59°21' E 018°08'1 2.9
2017-Jun-21 05:30N 59°20' E 018°10'5 9.8
2017-Jun-21 05:00N 59°23' E 018°18'4 8.7
2017-Jun-21 04:30N 59°22' E 018°27'5 9.3
2017-Jun-21 04:00N 59°26' E 018°23'510.9
2017-Jun-21 03:31N 59°31' E 018°29'5 9.8
2017-Jun-21 03:00N 59°33' E 018°37'611.3
2017-Jun-21 02:31N 59°36' E 018°47'510.5
2017-Jun-21 02:01N 59°39' E 018°55'713.1
2017-Jun-21 01:30N 59°43' E 019°06'917.4
2017-Jun-21 01:00N 59°46' E 019°22'4 8.9
2017-Jun-21 00:30N 59°48' E 019°30'5 9.2
2017-Jun-21 00:00N 59°48' E 019°39'5 9.5
2017-Jun-20 23:30N 59°46' E 019°47'5 9.9
2017-Jun-20 23:00N 59°42' E 019°54'510.1
2017-Jun-20 22:30N 59°38' E 020°01'713.2
2017-Jun-20 22:00N 59°34' E 020°10'816.2
2017-Jun-20 21:30N 59°26' E 020°06'918.2
2017-Jun-20 21:00N 59°19' E 019°55'918.3
2017-Jun-20 20:30N 59°12' E 019°43'918.6
2017-Jun-20 20:00N 59°04' E 019°33'918.7
2017-Jun-20 19:30N 58°56' E 019°23'17317.4
2017-Jun-20 09:33N 56°21' E 017°01'121.3
2017-Jun-20 09:30N 56°20' E 017°00'1121.3
2017-Jun-20 09:00N 56°10' E 016°53'1020.7
2017-Jun-20 08:30N 56°02' E 016°41'1121.8
2017-Jun-20 08:00N 55°58' E 016°24'1121.9
2017-Jun-20 07:30N 55°52' E 016°07'1122.0
2017-Jun-20 07:00N 55°46' E 015°50'1122.0
2017-Jun-20 06:30N 55°41' E 015°33'918.5
2017-Jun-20 06:00N 55°37' E 015°19'918.8
2017-Jun-20 05:30N 55°32' E 015°04'1122.2
2017-Jun-20 05:00N 55°27' E 014°47'1122.1
2017-Jun-20 04:30N 55°19' E 014°34'1121.8
2017-Jun-20 04:00N 55°10' E 014°21'917.0
2017-Jun-20 03:30N 55°03' E 014°12'815.5
2017-Jun-20 03:00N 54°59' E 014°01'815.9
2017-Jun-20 02:30N 54°57' E 013°48'816.2
2017-Jun-20 02:00N 54°54' E 013°34'1020.4
2017-Jun-20 01:30N 54°51' E 013°17'1020.9
2017-Jun-20 01:00N 54°48' E 012°60'1020.3
2017-Jun-20 00:30N 54°45' E 012°43'1019.9
2017-Jun-19 23:59N 54°39' E 012°28'1519.6
2017-Jun-19 23:13N 54°27' E 012°13'419.8
2017-Jun-19 22:59N 54°23' E 012°09'817.3
2017-Jun-19 22:30N 54°15' E 012°04'5 2.1
2017-Jun-19 20:05N 54°10' E 012°06'0 0.0
2017-Jun-19 16:32N 54°10' E 012°06'0 0.0
2017-Jun-19 16:29N 54°10' E 012°06'0 0.0
2017-Jun-19 14:29N 54°10' E 012°06'0 0.0
2017-Jun-19 11:29N 54°10' E 012°06'0 0.0
2017-Jun-19 08:14N 54°10' E 012°06'0 0.0
2017-Jun-19 07:59N 54°10' E 012°06'0 0.0
2017-Jun-19 07:17N 54°10' E 012°06'0 0.0
2017-Jun-19 06:59N 54°10' E 012°06'0 0.0
2017-Jun-19 05:08N 54°10' E 012°06'0 0.0
2017-Jun-19 04:18N 54°10' E 012°06'0 0.9
2017-Jun-19 04:00N 54°11' E 012°06'4 8.6
2017-Jun-19 03:30N 54°15' E 012°03'612.5
2017-Jun-19 03:00N 54°19' E 011°56'917.9
2017-Jun-19 02:30N 54°24' E 011°43'918.1
2017-Jun-19 02:00N 54°29' E 011°30'918.3
2017-Jun-19 01:30N 54°33' E 011°16'1020.9
2017-Jun-19 01:00N 54°38' E 011°00'816.8
2017-Jun-19 00:30N 54°45' E 010°51'713.7
2017-Jun-19 00:00N 54°52' E 010°52'1019.9
2017-Jun-18 23:30N 55°00' E 011°01'1020.3
2017-Jun-18 23:00N 55°10' E 011°03'816.1
2017-Jun-18 22:30N 55°18' E 011°02'815.3
2017-Jun-18 21:59N 55°26' E 010°58'4715.7
2017-Jun-18 19:00N 56°08' E 011°32'1020.2
2017-Jun-18 18:30N 56°09' E 011°50'1020.4
2017-Jun-18 18:00N 56°12' E 012°08'1019.2
2017-Jun-18 17:30N 56°10' E 012°25'918.8
2017-Jun-18 17:00N 56°04' E 012°38'714.7
2017-Jun-18 16:30N 55°57' E 012°39'815.6
2017-Jun-18 16:00N 55°49' E 012°43'713.1
2017-Jun-18 15:30N 55°43' E 012°39'1 1.4
2017-Jun-18 14:58N 55°43' E 012°37'0 0.0
2017-Jun-18 13:58N 55°43' E 012°37'0 0.0
2017-Jun-18 13:28N 55°43' E 012°37'0 0.0
2017-Jun-18 12:58N 55°43' E 012°37'0 0.0
2017-Jun-18 12:28N 55°43' E 012°37'0 0.0
2017-Jun-18 11:58N 55°43' E 012°37'0 0.0
2017-Jun-18 11:28N 55°43' E 012°37'0 0.0
2017-Jun-18 10:58N 55°43' E 012°37'0 0.0
2017-Jun-18 10:28N 55°43' E 012°37'0 0.0
2017-Jun-18 09:58N 55°43' E 012°37'0 0.0
2017-Jun-18 09:28N 55°43' E 012°37'0 0.0
2017-Jun-18 08:58N 55°43' E 012°37'0 0.0
2017-Jun-18 08:28N 55°43' E 012°37'0 0.0
2017-Jun-18 07:58N 55°43' E 012°37'0 0.0
2017-Jun-18 07:28N 55°43' E 012°37'0 0.0
2017-Jun-18 06:58N 55°43' E 012°37'0 0.0
2017-Jun-18 06:28N 55°43' E 012°37'0 0.0
2017-Jun-18 05:58N 55°43' E 012°37'0 0.0
2017-Jun-18 05:28N 55°43' E 012°37'0 0.0
2017-Jun-18 04:58N 55°43' E 012°37'1 3.1
2017-Jun-18 04:30N 55°44' E 012°39'815.0
2017-Jun-18 04:01N 55°51' E 012°41'918.5
2017-Jun-18 03:31N 56°00' E 012°40'1019.1
2017-Jun-18 03:01N 56°08' E 012°29'1021.0
2017-Jun-18 02:31N 56°12' E 012°11'1121.0
2017-Jun-18 02:00N 56°10' E 011°53'5815.2
2017-Jun-17 22:10N 55°19' E 011°03'319.2
2017-Jun-17 22:00N 55°16' E 011°05'919.2
2017-Jun-17 21:31N 55°06' E 011°03'1019.3
2017-Jun-17 21:00N 54°57' E 010°56'918.5
2017-Jun-17 20:31N 54°49' E 010°51'917.0
2017-Jun-17 20:01N 54°41' E 010°56'1019.8
2017-Jun-17 19:31N 54°36' E 011°11'1020.2
2017-Jun-17 19:01N 54°32' E 011°27'1120.1
2017-Jun-17 18:28N 54°27' E 011°44'919.5
2017-Jun-17 18:00N 54°27' E 011°60'816.5
2017-Jun-17 17:30N 54°30' E 012°13'5918.3
2017-Jun-17 14:17N 54°59' E 013°41'1721.2
2017-Jun-17 13:30N 55°07' E 014°07'1121.4
2017-Jun-17 13:00N 55°15' E 014°18'1121.7
2017-Jun-17 12:30N 55°24' E 014°29'1121.2
2017-Jun-17 12:00N 55°30' E 014°45'1121.9
2017-Jun-17 11:30N 55°34' E 015°02'1121.8
2017-Jun-17 11:00N 55°39' E 015°20'1121.7
2017-Jun-17 10:30N 55°41' E 015°39'1121.8
2017-Jun-17 10:00N 55°44' E 015°57'1020.7
2017-Jun-17 09:30N 55°48' E 016°14'1020.4
2017-Jun-17 09:00N 55°49' E 016°32'1121.2
2017-Jun-17 08:30N 55°52' E 016°51'1020.9
2017-Jun-17 08:00N 55°54' E 017°09'4921.0
2017-Jun-17 05:41N 56°16' E 018°28'522.4
2017-Jun-17 05:27N 56°18' E 018°36'1022.0
2017-Jun-17 05:00N 56°25' E 018°47'12622.0
2017-Jun-16 23:19N 58°18' E 020°29'722.2
2017-Jun-16 23:00N 58°24' E 020°37'1121.9
2017-Jun-16 22:30N 58°32' E 020°50'1122.2
2017-Jun-16 22:00N 58°41' E 021°02'1122.3
2017-Jun-16 21:30N 58°51' E 021°13'1122.3
2017-Jun-16 21:00N 59°00' E 021°25'1122.2
2017-Jun-16 20:30N 59°09' E 021°38'1122.3
2017-Jun-16 20:00N 59°16' E 021°55'1122.1
2017-Jun-16 19:30N 59°23' E 022°12'1122.2
2017-Jun-16 19:00N 59°29' E 022°30'1122.1
2017-Jun-16 18:30N 59°31' E 022°52'1122.4
2017-Jun-16 18:00N 59°32' E 023°14'1122.0
2017-Jun-16 17:30N 59°32' E 023°35'1121.9
2017-Jun-16 17:00N 59°31' E 023°57'1122.1
2017-Jun-16 16:31N 59°30' E 024°18'816.7
2017-Jun-16 16:00N 59°31' E 024°35'5 9.9
2017-Jun-16 15:31N 59°31' E 024°45'4 8.5
2017-Jun-16 15:00N 59°27' E 024°46'0 0.3
2017-Jun-16 14:30N 59°27' E 024°46'0 0.0
2017-Jun-16 13:30N 59°27' E 024°46'0 0.0
2017-Jun-16 13:00N 59°27' E 024°46'0 0.0
2017-Jun-16 12:30N 59°27' E 024°46'0 0.0
2017-Jun-16 12:00N 59°27' E 024°46'0 0.0
2017-Jun-16 11:30N 59°27' E 024°46'0 0.0
2017-Jun-16 11:00N 59°27' E 024°46'0 0.0
2017-Jun-16 10:30N 59°27' E 024°46'0 0.0
2017-Jun-16 10:00N 59°27' E 024°46'0 0.0
2017-Jun-16 09:30N 59°27' E 024°46'0 0.0
2017-Jun-16 08:57N 59°27' E 024°46'0 0.5
2017-Jun-16 08:30N 59°27' E 024°46'612.6
2017-Jun-16 08:00N 59°33' E 024°42'713.2
2017-Jun-16 07:31N 59°40' E 024°39'714.8
2017-Jun-16 07:00N 59°47' E 024°40'714.6
2017-Jun-16 06:31N 59°50' E 024°53'817.0
2017-Jun-16 06:00N 59°51' E 025°10'917.7
2017-Jun-16 05:30N 59°53' E 025°27'918.3
2017-Jun-16 05:00N 59°55' E 025°45'1019.4
2017-Jun-16 04:31N 59°57' E 026°04'1121.9
2017-Jun-16 04:01N 60°00' E 026°25'1121.1
2017-Jun-16 03:31N 60°01' E 026°46'1120.9
2017-Jun-16 03:00N 60°00' E 027°07'1121.8
2017-Jun-16 02:30N 60°06' E 027°25'1121.6
2017-Jun-16 02:01N 60°12' E 027°44'1121.5
2017-Jun-16 01:30N 60°10' E 028°05'1121.2
2017-Jun-16 01:00N 60°05' E 028°24'1020.9
2017-Jun-16 00:30N 60°03' E 028°44'1121.1
2017-Jun-16 00:00N 60°02' E 029°06'1019.8
2017-Jun-15 23:31N 60°02' E 029°25'5 9.8
2017-Jun-15 23:01N 60°01' E 029°35'510.7
2017-Jun-15 22:30N 59°59' E 029°45'5 9.4
2017-Jun-15 22:01N 59°57' E 029°53'5 9.6
2017-Jun-15 21:30N 59°56' E 030°03'4 8.5
2017-Jun-15 21:00N 59°57' E 030°11'0 0.4
2017-Jun-15 20:28N 59°57' E 030°11'0 0.0
2017-Jun-15 19:58N 59°57' E 030°11'0 0.0
2017-Jun-15 19:28N 59°57' E 030°11'0 0.0
2017-Jun-15 18:58N 59°57' E 030°11'0 0.0
2017-Jun-15 18:28N 59°57' E 030°11'0 0.0
2017-Jun-15 17:58N 59°57' E 030°11'0 0.0
2017-Jun-15 17:28N 59°57' E 030°11'0 0.0
2017-Jun-15 16:58N 59°57' E 030°11'0 0.0
2017-Jun-15 16:28N 59°57' E 030°11'0 0.0
2017-Jun-15 15:58N 59°57' E 030°11'0 0.0
2017-Jun-15 15:28N 59°57' E 030°11'0 0.0
2017-Jun-15 14:58N 59°57' E 030°11'0 0.0
2017-Jun-15 13:58N 59°57' E 030°11'0 0.0
2017-Jun-15 13:28N 59°57' E 030°11'0 0.0
2017-Jun-15 12:58N 59°57' E 030°11'0 0.0
2017-Jun-15 12:28N 59°57' E 030°11'0 0.0
2017-Jun-15 11:58N 59°57' E 030°11'0 0.0
2017-Jun-15 11:28N 59°57' E 030°11'0 0.0
2017-Jun-15 10:58N 59°57' E 030°11'0 0.0
2017-Jun-15 10:28N 59°57' E 030°11'0 0.0
2017-Jun-15 09:58N 59°57' E 030°11'0 0.0
2017-Jun-15 09:28N 59°57' E 030°11'0 0.0
2017-Jun-15 08:58N 59°57' E 030°11'  

Dump ship's entire track history